createdAt,value
2017-08-02T00:00:32.615Z,1011.24
2017-08-02T00:01:41.955Z,1011.3
2017-08-02T00:02:50.990Z,1011.3
2017-08-02T00:04:00.312Z,1011.24
2017-08-02T00:05:09.396Z,1011.19
2017-08-02T00:06:18.533Z,1011.19
2017-08-02T00:07:27.616Z,1011.22
2017-08-02T00:08:36.875Z,1011.25
2017-08-02T00:09:45.911Z,1011.23
2017-08-02T00:10:55.067Z,1011.24
2017-08-02T00:12:04.298Z,1011.17
2017-08-02T00:13:13.548Z,1011.22
2017-08-02T00:14:22.752Z,1011.25
2017-08-02T00:15:31.870Z,1011.26
2017-08-02T00:16:40.962Z,1011.22
2017-08-02T00:17:50.111Z,1011.21
2017-08-02T00:18:59.349Z,1011.25
2017-08-02T00:20:08.533Z,1011.23
2017-08-02T00:21:18.010Z,1011.2
2017-08-02T00:22:27.322Z,1011.19
2017-08-02T00:23:36.460Z,1011.12
2017-08-02T00:24:45.786Z,1011.14
2017-08-02T00:25:54.788Z,1011.12
2017-08-02T00:27:04.044Z,1011.16
2017-08-02T00:28:13.330Z,1011.15
2017-08-02T00:29:22.494Z,1011.13
2017-08-02T00:30:31.692Z,1011.1
2017-08-02T00:31:40.853Z,1011.07
2017-08-02T00:32:50.222Z,1011.09
2017-08-02T00:33:59.527Z,1011.04
2017-08-02T00:35:08.596Z,1011.06
2017-08-02T00:36:17.679Z,1011.07
2017-08-02T00:37:27.003Z,1011.09
2017-08-02T00:38:36.301Z,1011.15
2017-08-02T00:39:45.474Z,1011.18
2017-08-02T00:40:54.587Z,1011.21
2017-08-02T00:42:03.780Z,1011.14
2017-08-02T00:43:12.748Z,1011.15
2017-08-02T00:44:21.709Z,1011.19
2017-08-02T00:45:30.667Z,1011.21
2017-08-02T00:46:39.629Z,1011.28
2017-08-02T00:47:48.588Z,1011.25
2017-08-02T00:48:57.550Z,1011.27
2017-08-02T00:50:06.504Z,1011.26
2017-08-02T00:51:15.472Z,1011.25
2017-08-02T00:52:24.761Z,1011.26
2017-08-02T00:53:33.724Z,1011.29
2017-08-02T00:54:43.002Z,1011.32
2017-08-02T00:55:51.967Z,1011.37
2017-08-02T00:57:00.936Z,1011.37
2017-08-02T00:58:09.936Z,1011.37
2017-08-02T00:59:18.905Z,1011.36
2017-08-02T01:00:27.879Z,1011.32
2017-08-02T01:01:36.838Z,1011.31
2017-08-02T01:02:45.796Z,1011.27
2017-08-02T01:03:54.756Z,1011.21
2017-08-02T01:05:03.709Z,1011.2
2017-08-02T01:06:12.677Z,1011.16
2017-08-02T01:07:21.639Z,1011.11
2017-08-02T01:08:30.613Z,1011.13
2017-08-02T01:09:39.581Z,1011.19
2017-08-02T01:10:48.872Z,1011.19
2017-08-02T01:11:57.831Z,1011.17
2017-08-02T01:13:06.798Z,1011.19
2017-08-02T01:14:15.768Z,1011.17
2017-08-02T01:15:24.735Z,1011.11
2017-08-02T01:16:33.699Z,1011.07
2017-08-02T01:17:42.657Z,1011.12
2017-08-02T01:18:51.619Z,1011.13
2017-08-02T01:20:00.576Z,1011.2
2017-08-02T01:21:09.534Z,1011.2
2017-08-02T01:22:18.496Z,1011.25
2017-08-02T01:23:27.786Z,1011.22
2017-08-02T01:24:36.741Z,1011.22
2017-08-02T01:25:45.727Z,1011.21
2017-08-02T01:26:54.689Z,1011.28
2017-08-02T01:28:03.996Z,1011.27
2017-08-02T01:29:12.959Z,1011.28
2017-08-02T01:30:21.913Z,1011.26
2017-08-02T01:31:30.875Z,1011.29
2017-08-02T01:32:39.835Z,1011.33
2017-08-02T01:33:49.117Z,1011.31
2017-08-02T01:34:58.075Z,1011.34
2017-08-02T01:36:07.045Z,1011.37
2017-08-02T01:37:16.008Z,1011.32
2017-08-02T01:38:24.970Z,1011.36
2017-08-02T01:39:33.933Z,1011.36
2017-08-02T01:40:42.933Z,1011.35
2017-08-02T01:41:52.196Z,1011.33
2017-08-02T01:43:01.479Z,1011.33
2017-08-02T01:44:10.478Z,1011.35
2017-08-02T01:45:19.760Z,1011.35
2017-08-02T01:46:28.725Z,1011.32
2017-08-02T01:47:37.682Z,1011.28
2017-08-02T01:48:46.645Z,1011.35
2017-08-02T01:49:55.614Z,1011.35
2017-08-02T01:51:04.570Z,1011.41
2017-08-02T01:52:13.528Z,1011.42
2017-08-02T01:53:22.495Z,1011.44
2017-08-02T01:54:31.482Z,1011.44
2017-08-02T01:55:40.447Z,1011.47
2017-08-02T01:56:49.400Z,1011.42
2017-08-02T01:57:58.381Z,1011.42
2017-08-02T01:59:07.343Z,1011.44
2017-08-02T02:00:16.306Z,1011.44
2017-08-02T02:01:25.276Z,1011.48
2017-08-02T02:02:34.251Z,1011.48
2017-08-02T02:03:43.211Z,1011.47
2017-08-02T02:04:52.823Z,1011.5
2017-08-02T02:06:01.789Z,1011.49
2017-08-02T02:07:10.747Z,1011.48
2017-08-02T02:08:19.699Z,1011.47
2017-08-02T02:09:28.668Z,1011.47
2017-08-02T02:10:37.630Z,1011.48
2017-08-02T02:11:46.594Z,1011.46
2017-08-02T02:12:55.563Z,1011.45
2017-08-02T02:14:04.522Z,1011.44
2017-08-02T02:15:13.490Z,1011.45
2017-08-02T02:16:23.101Z,1011.45
2017-08-02T02:17:32.061Z,1011.48
2017-08-02T02:18:41.025Z,1011.48
2017-08-02T02:19:50.000Z,1011.54
2017-08-02T02:20:58.976Z,1011.54
2017-08-02T02:22:07.932Z,1011.55
2017-08-02T02:23:16.909Z,1011.54
2017-08-02T02:24:25.876Z,1011.55
2017-08-02T02:25:34.841Z,1011.58
2017-08-02T02:26:43.818Z,1011.63
2017-08-02T02:27:52.794Z,1011.6
2017-08-02T02:29:01.752Z,1011.63
2017-08-02T02:30:10.718Z,1011.65
2017-08-02T02:31:19.685Z,1011.64
2017-08-02T02:32:28.643Z,1011.68
2017-08-02T02:33:37.605Z,1011.61
2017-08-02T02:34:46.889Z,1011.62
2017-08-02T02:35:55.848Z,1011.59
2017-08-02T02:37:04.805Z,1011.56
2017-08-02T02:38:13.762Z,1011.54
2017-08-02T02:39:22.721Z,1011.52
2017-08-02T02:40:31.681Z,1011.53
2017-08-02T02:41:40.642Z,1011.51
2017-08-02T02:42:49.633Z,1011.49
2017-08-02T02:43:58.594Z,1011.5
2017-08-02T02:45:07.563Z,1011.46
2017-08-02T02:46:16.864Z,1011.55
2017-08-02T02:47:25.837Z,1011.54
2017-08-02T02:48:34.800Z,1011.55
2017-08-02T02:49:44.093Z,1011.57
2017-08-02T02:50:53.056Z,1011.59
2017-08-02T02:52:02.017Z,1011.61
2017-08-02T02:53:10.981Z,1011.6
2017-08-02T02:54:19.941Z,1011.61
2017-08-02T02:55:28.902Z,1011.63
2017-08-02T02:56:37.854Z,1011.64
2017-08-02T02:57:46.822Z,1011.65
2017-08-02T02:58:55.785Z,1011.69
2017-08-02T03:00:04.748Z,1011.68
2017-08-02T03:01:13.713Z,1011.77
2017-08-02T03:02:22.671Z,1011.74
2017-08-02T03:03:31.621Z,1011.77
2017-08-02T03:04:40.910Z,1011.77
2017-08-02T03:05:49.879Z,1011.78
2017-08-02T03:06:58.844Z,1011.8
2017-08-02T03:08:07.807Z,1011.77
2017-08-02T03:09:16.771Z,1011.77
2017-08-02T03:10:26.057Z,1011.72
2017-08-02T03:11:35.015Z,1011.77
2017-08-02T03:12:44.304Z,1011.77
2017-08-02T03:13:53.264Z,1011.79
2017-08-02T03:15:02.230Z,1011.82
2017-08-02T03:16:11.195Z,1011.82
2017-08-02T03:17:20.154Z,1011.81
2017-08-02T03:18:29.113Z,1011.87
2017-08-02T03:19:38.075Z,1011.87
2017-08-02T03:20:47.033Z,1011.88
2017-08-02T03:21:55.994Z,1011.87
2017-08-02T03:23:05.278Z,1011.83
2017-08-02T03:24:14.247Z,1011.85
2017-08-02T03:25:23.513Z,1011.88
2017-08-02T03:26:32.485Z,1011.85
2017-08-02T03:27:41.443Z,1011.84
2017-08-02T03:28:50.400Z,1011.87
2017-08-02T03:29:59.368Z,1011.88
2017-08-02T03:31:08.333Z,1011.86
2017-08-02T03:32:17.317Z,1011.87
2017-08-02T03:33:26.282Z,1011.86
2017-08-02T03:34:35.566Z,1011.88
2017-08-02T03:35:44.526Z,1011.87
2017-08-02T03:36:53.496Z,1011.92
2017-08-02T03:38:02.456Z,1011.92
2017-08-02T03:39:11.413Z,1011.93
2017-08-02T03:40:20.370Z,1011.94
2017-08-02T03:41:29.349Z,1011.96
2017-08-02T03:42:38.305Z,1011.93
2017-08-02T03:43:47.256Z,1011.97
2017-08-02T03:44:56.210Z,1011.96
2017-08-02T03:46:05.177Z,1011.98
2017-08-02T03:47:14.137Z,1011.99
2017-08-02T03:48:23.094Z,1012.03
2017-08-02T03:49:32.054Z,1012.03
2017-08-02T03:50:41.007Z,1012.04
2017-08-02T03:51:49.975Z,1012.04
2017-08-02T03:52:58.940Z,1012.05
2017-08-02T03:54:07.901Z,1012.02
2017-08-02T03:55:16.855Z,1012.06
2017-08-02T03:56:25.824Z,1012.08
2017-08-02T03:57:34.788Z,1012.13
2017-08-02T03:58:43.752Z,1012.1
2017-08-02T03:59:53.039Z,1012.07
2017-08-02T04:01:01.996Z,1012.12
2017-08-02T04:02:10.957Z,1012.15
2017-08-02T04:03:20.261Z,1012.12
2017-08-02T04:04:29.552Z,1012.12
2017-08-02T04:05:38.506Z,1012.18
2017-08-02T04:06:47.466Z,1012.18
2017-08-02T04:07:56.428Z,1012.21
2017-08-02T04:09:05.378Z,1012.29
2017-08-02T04:10:14.328Z,1012.32
2017-08-02T04:11:23.293Z,1012.33
2017-08-02T04:12:32.265Z,1012.36
2017-08-02T04:13:41.230Z,1012.34
2017-08-02T04:14:50.194Z,1012.37
2017-08-02T04:15:59.165Z,1012.39
2017-08-02T04:17:08.128Z,1012.37
2017-08-02T04:18:17.083Z,1012.41
2017-08-02T04:19:26.041Z,1012.41
2017-08-02T04:20:35.002Z,1012.43
2017-08-02T04:21:43.969Z,1012.41
2017-08-02T04:22:53.258Z,1012.43
2017-08-02T04:24:02.544Z,1012.4
2017-08-02T04:25:11.513Z,1012.43
2017-08-02T04:26:20.803Z,1012.47
2017-08-02T04:27:29.778Z,1012.48
2017-08-02T04:28:38.739Z,1012.48
2017-08-02T04:29:47.699Z,1012.48
2017-08-02T04:30:56.650Z,1012.44
2017-08-02T04:32:05.615Z,1012.49
2017-08-02T04:33:14.572Z,1012.49
2017-08-02T04:34:23.530Z,1012.49
2017-08-02T04:35:32.497Z,1012.49
2017-08-02T04:36:41.459Z,1012.53
2017-08-02T04:37:50.427Z,1012.52
2017-08-02T04:38:59.388Z,1012.56
2017-08-02T04:40:08.341Z,1012.59
2017-08-02T04:41:17.303Z,1012.58
2017-08-02T04:42:26.267Z,1012.66
2017-08-02T04:43:35.231Z,1012.67
2017-08-02T04:44:44.199Z,1012.66
2017-08-02T04:45:53.160Z,1012.58
2017-08-02T04:47:02.124Z,1012.57
2017-08-02T04:48:11.082Z,1012.61
2017-08-02T04:49:20.376Z,1012.61
2017-08-02T04:50:29.334Z,1012.56
2017-08-02T04:51:38.290Z,1012.56
2017-08-02T04:52:47.271Z,1012.54
2017-08-02T04:53:56.223Z,1012.54
2017-08-02T04:55:05.187Z,1012.51
2017-08-02T04:56:14.147Z,1012.52
2017-08-02T04:57:23.111Z,1012.49
2017-08-02T04:58:32.080Z,1012.48
2017-08-02T04:59:41.048Z,1012.46
2017-08-02T05:00:50.017Z,1012.46
2017-08-02T05:01:58.978Z,1012.44
2017-08-02T05:03:07.943Z,1012.39
2017-08-02T05:04:16.899Z,1012.39
2017-08-02T05:05:25.866Z,1012.38
2017-08-02T05:06:34.823Z,1012.37
2017-08-02T05:07:43.783Z,1012.34
2017-08-02T05:08:53.390Z,1012.31
2017-08-02T05:10:02.354Z,1012.31
2017-08-02T05:11:11.336Z,1012.38
2017-08-02T05:12:20.287Z,1012.42
2017-08-02T05:13:29.570Z,1012.47
2017-08-02T05:14:38.535Z,1012.48
2017-08-02T05:15:48.139Z,1012.51
2017-08-02T05:16:57.103Z,1012.53
2017-08-02T05:18:06.074Z,1012.53
2017-08-02T05:19:15.041Z,1012.52
2017-08-02T05:20:24.004Z,1012.51
2017-08-02T05:21:32.960Z,1012.5
2017-08-02T05:22:41.925Z,1012.54
2017-08-02T05:23:50.887Z,1012.56
2017-08-02T05:24:59.846Z,1012.6
2017-08-02T05:26:08.810Z,1012.61
2017-08-02T05:27:17.773Z,1012.62
2017-08-02T05:28:26.748Z,1012.6
2017-08-02T05:29:35.715Z,1012.62
2017-08-02T05:30:44.681Z,1012.63
2017-08-02T05:31:53.994Z,1012.65
2017-08-02T05:33:02.952Z,1012.66
2017-08-02T05:34:11.903Z,1012.7
2017-08-02T05:35:20.870Z,1012.71
2017-08-02T05:36:30.157Z,1012.73
2017-08-02T05:37:39.135Z,1012.75
2017-08-02T05:38:48.409Z,1012.72
2017-08-02T05:39:57.374Z,1012.74
2017-08-02T05:41:06.334Z,1012.73
2017-08-02T05:42:15.298Z,1012.78
2017-08-02T05:43:24.256Z,1012.74
2017-08-02T05:44:33.543Z,1012.67
2017-08-02T05:45:42.525Z,1012.68
2017-08-02T05:46:51.490Z,1012.68
2017-08-02T05:48:00.453Z,1012.65
2017-08-02T05:49:09.418Z,1012.61
2017-08-02T05:50:18.378Z,1012.58
2017-08-02T05:51:27.340Z,1012.61
2017-08-02T05:52:36.309Z,1012.61
2017-08-02T05:53:45.294Z,1012.59
2017-08-02T05:54:54.377Z,1012.61
2017-08-02T05:56:03.339Z,1012.61
2017-08-02T05:57:12.295Z,1012.64
2017-08-02T05:58:21.244Z,1012.6
2017-08-02T05:59:30.198Z,1012.65
2017-08-02T06:00:39.177Z,1012.6
2017-08-02T06:01:48.130Z,1012.58
2017-08-02T06:02:57.098Z,1012.56
2017-08-02T06:04:06.385Z,1012.53
2017-08-02T06:05:15.344Z,1012.47
2017-08-02T06:06:24.321Z,1012.46
2017-08-02T06:07:33.283Z,1012.48
2017-08-02T06:08:42.246Z,1012.47
2017-08-02T06:09:51.205Z,1012.51
2017-08-02T06:11:00.485Z,1012.58
2017-08-02T06:12:09.446Z,1012.57
2017-08-02T06:13:18.411Z,1012.65
2017-08-02T06:14:27.399Z,1012.59
2017-08-02T06:15:36.413Z,1012.64
2017-08-02T06:16:45.694Z,1012.67
2017-08-02T06:17:55.006Z,1012.68
2017-08-02T06:19:03.962Z,1012.67
2017-08-02T06:20:12.935Z,1012.7
2017-08-02T06:21:21.899Z,1012.75
2017-08-02T06:22:30.859Z,1012.77
2017-08-02T06:23:39.820Z,1012.81
2017-08-02T06:24:48.784Z,1012.78
2017-08-02T06:25:57.745Z,1012.86
2017-08-02T06:27:06.719Z,1012.89
2017-08-02T06:28:15.691Z,1012.89
2017-08-02T06:29:24.663Z,1012.86
2017-08-02T06:30:33.963Z,1012.89
2017-08-02T06:31:42.927Z,1012.89
2017-08-02T06:32:51.891Z,1012.88
2017-08-02T06:34:00.846Z,1012.88
2017-08-02T06:35:09.806Z,1012.9
2017-08-02T06:36:18.845Z,1012.89
2017-08-02T06:37:28.161Z,1012.86
2017-08-02T06:38:37.221Z,1012.9
2017-08-02T06:39:46.268Z,1012.88
2017-08-02T06:40:55.375Z,1012.9
2017-08-02T06:42:04.491Z,1012.92
2017-08-02T06:43:13.640Z,1012.87
2017-08-02T06:44:22.725Z,1012.91
2017-08-02T06:45:31.907Z,1012.91
2017-08-02T06:46:40.921Z,1012.93
2017-08-02T06:47:49.976Z,1012.91
2017-08-02T06:48:59.033Z,1012.92
2017-08-02T06:50:08.206Z,1012.91
2017-08-02T06:51:17.253Z,1012.92
2017-08-02T06:52:26.381Z,1012.94
2017-08-02T06:53:35.383Z,1012.98
2017-08-02T06:54:44.836Z,1013.01
2017-08-02T06:55:53.877Z,1012.97
2017-08-02T06:57:02.876Z,1012.99
2017-08-02T06:58:12.050Z,1012.96
2017-08-02T06:59:21.108Z,1012.99
2017-08-02T07:00:30.248Z,1013.07
2017-08-02T07:01:39.412Z,1013.12
2017-08-02T07:02:48.637Z,1013.15
2017-08-02T07:03:57.702Z,1013.15
2017-08-02T07:05:06.717Z,1013.17
2017-08-02T07:06:15.795Z,1013.16
2017-08-02T07:07:24.945Z,1013.2
2017-08-02T07:08:33.920Z,1013.19
2017-08-02T07:09:42.906Z,1013.19
2017-08-02T07:10:52.381Z,1013.19
2017-08-02T07:12:01.394Z,1013.22
2017-08-02T07:13:10.488Z,1013.24
2017-08-02T07:14:19.569Z,1013.31
2017-08-02T07:15:28.531Z,1013.36
2017-08-02T07:16:37.530Z,1013.42
2017-08-02T07:17:46.528Z,1013.47
2017-08-02T07:18:55.583Z,1013.46
2017-08-02T07:20:04.950Z,1013.46
2017-08-02T07:21:14.000Z,1013.38
2017-08-02T07:22:22.970Z,1013.37
2017-08-02T07:23:32.028Z,1013.43
2017-08-02T07:24:41.053Z,1013.37
2017-08-02T07:25:50.342Z,1013.38
2017-08-02T07:26:59.418Z,1013.32
2017-08-02T07:28:08.378Z,1013.33
2017-08-02T07:29:17.346Z,1013.33
2017-08-02T07:30:26.313Z,1013.35
2017-08-02T07:31:35.297Z,1013.36
2017-08-02T07:32:44.338Z,1013.39
2017-08-02T07:33:53.368Z,1013.39
2017-08-02T07:35:02.553Z,1013.43
2017-08-02T07:36:11.976Z,1013.43
2017-08-02T07:37:21.028Z,1013.34
2017-08-02T07:38:30.033Z,1013.35
2017-08-02T07:39:38.994Z,1013.32
2017-08-02T07:40:48.288Z,1013.32
2017-08-02T07:41:57.256Z,1013.34
2017-08-02T07:43:06.215Z,1013.33
2017-08-02T07:44:15.176Z,1013.37
2017-08-02T07:45:24.143Z,1013.37
2017-08-02T07:46:33.105Z,1013.36
2017-08-02T07:47:42.065Z,1013.35
2017-08-02T07:48:51.029Z,1013.37
2017-08-02T07:49:59.995Z,1013.38
2017-08-02T07:51:08.962Z,1013.39
2017-08-02T07:52:17.929Z,1013.42
2017-08-02T07:53:26.890Z,1013.38
2017-08-02T07:54:35.855Z,1013.36
2017-08-02T07:55:44.828Z,1013.37
2017-08-02T07:56:53.828Z,1013.41
2017-08-02T07:58:02.785Z,1013.41
2017-08-02T07:59:11.745Z,1013.45
2017-08-02T08:00:20.704Z,1013.47
2017-08-02T08:01:29.663Z,1013.54
2017-08-02T08:02:38.953Z,1013.55
2017-08-02T08:03:47.925Z,1013.65
2017-08-02T08:04:56.882Z,1013.62
2017-08-02T08:06:05.846Z,1013.59
2017-08-02T08:07:14.808Z,1013.56
2017-08-02T08:08:23.770Z,1013.56
2017-08-02T08:09:32.744Z,1013.55
2017-08-02T08:10:41.702Z,1013.54
2017-08-02T08:11:50.668Z,1013.5
2017-08-02T08:12:59.635Z,1013.56
2017-08-02T08:14:08.586Z,1013.54
2017-08-02T08:15:17.554Z,1013.58
2017-08-02T08:16:26.526Z,1013.6
2017-08-02T08:17:35.490Z,1013.67
2017-08-02T08:18:44.452Z,1013.71
2017-08-02T08:19:53.419Z,1013.7
2017-08-02T08:21:02.704Z,1013.71
2017-08-02T08:22:11.664Z,1013.71
2017-08-02T08:23:20.627Z,1013.7
2017-08-02T08:24:29.590Z,1013.7
2017-08-02T08:25:38.554Z,1013.67
2017-08-02T08:26:47.635Z,1013.71
2017-08-02T08:27:57.833Z,1013.78
2017-08-02T08:29:07.967Z,1013.76
2017-08-02T08:30:16.935Z,1013.77
2017-08-02T08:31:25.899Z,1013.79
2017-08-02T08:32:34.855Z,1013.77
2017-08-02T08:33:43.827Z,1013.74
2017-08-02T08:34:52.788Z,1013.76
2017-08-02T08:36:01.751Z,1013.78
2017-08-02T08:37:10.708Z,1013.82
2017-08-02T08:38:19.675Z,1013.87
2017-08-02T08:39:28.631Z,1013.9
2017-08-02T08:40:37.591Z,1013.91
2017-08-02T08:41:46.556Z,1013.88
2017-08-02T08:42:55.519Z,1013.87
2017-08-02T08:44:04.478Z,1013.82
2017-08-02T08:45:13.442Z,1013.86
2017-08-02T08:46:22.410Z,1013.86
2017-08-02T08:47:31.382Z,1013.98
2017-08-02T08:48:40.671Z,1013.96
2017-08-02T08:49:49.633Z,1013.98
2017-08-02T08:50:58.603Z,1014
2017-08-02T08:52:07.563Z,1014.06
2017-08-02T08:53:16.849Z,1014.03
2017-08-02T08:54:26.469Z,1014.03
2017-08-02T08:55:35.445Z,1014.04
2017-08-02T08:56:44.406Z,1014.02
2017-08-02T08:57:53.365Z,1014.05
2017-08-02T08:59:02.328Z,1014.05
2017-08-02T09:00:11.317Z,1014.09
2017-08-02T09:01:20.290Z,1014.07
2017-08-02T09:02:29.264Z,1014.08
2017-08-02T09:03:38.229Z,1014.1
2017-08-02T09:04:47.194Z,1014.03
2017-08-02T09:05:56.169Z,1014.03
2017-08-02T09:07:05.127Z,1014.07
2017-08-02T09:08:14.093Z,1014.06
2017-08-02T09:09:23.053Z,1014.07
2017-08-02T09:10:32.024Z,1014.05
2017-08-02T09:11:40.989Z,1014.1
2017-08-02T09:12:49.947Z,1014.1
2017-08-02T09:13:58.917Z,1014.07
2017-08-02T09:15:07.876Z,1014.06
2017-08-02T09:16:16.849Z,1014.06
2017-08-02T09:17:26.141Z,1014.03
2017-08-02T09:18:35.105Z,1014.02
2017-08-02T09:19:44.070Z,1014
2017-08-02T09:20:53.025Z,1014.08
2017-08-02T09:22:01.989Z,1014.04
2017-08-02T09:23:10.956Z,1014.09
2017-08-02T09:24:19.922Z,1014.08
2017-08-02T09:25:28.879Z,1014.06
2017-08-02T09:26:37.844Z,1014.09
2017-08-02T09:27:46.803Z,1014.12
2017-08-02T09:28:55.761Z,1014.12
2017-08-02T09:30:04.724Z,1014.2
2017-08-02T09:31:13.694Z,1014.25
2017-08-02T09:32:22.659Z,1014.18
2017-08-02T09:33:31.624Z,1014.19
2017-08-02T09:34:40.595Z,1014.16
2017-08-02T09:35:49.577Z,1014.13
2017-08-02T09:36:58.538Z,1014.17
2017-08-02T09:38:07.498Z,1014.17
2017-08-02T09:39:16.794Z,1014.18
2017-08-02T09:40:25.760Z,1014.16
2017-08-02T09:41:34.780Z,1014.16
2017-08-02T09:42:43.743Z,1014.2
2017-08-02T09:43:52.698Z,1014.21
2017-08-02T09:45:01.979Z,1014.24
2017-08-02T09:46:10.948Z,1014.22
2017-08-02T09:47:20.238Z,1014.24
2017-08-02T09:48:29.200Z,1014.27
2017-08-02T09:49:38.504Z,1014.3
2017-08-02T09:50:47.627Z,1014.29
2017-08-02T09:51:57.427Z,1014.3
2017-08-02T09:53:06.398Z,1014.27
2017-08-02T09:54:15.364Z,1014.26
2017-08-02T09:55:24.346Z,1014.2
2017-08-02T09:56:33.615Z,1014.15
2017-08-02T09:57:42.583Z,1014.15
2017-08-02T09:58:51.610Z,1014.15
2017-08-02T10:00:01.014Z,1014.2
2017-08-02T10:01:09.987Z,1014.19
2017-08-02T10:02:19.282Z,1014.16
2017-08-02T10:03:28.262Z,1014.18
2017-08-02T10:04:37.217Z,1014.14
2017-08-02T10:05:46.191Z,1014.11
2017-08-02T10:06:55.168Z,1014.08
2017-08-02T10:08:04.458Z,1014.1
2017-08-02T10:09:13.423Z,1014.15
2017-08-02T10:10:22.378Z,1014.15
2017-08-02T10:11:31.342Z,1014.17
2017-08-02T10:12:40.316Z,1014.17
2017-08-02T10:13:49.290Z,1014.14
2017-08-02T10:14:58.281Z,1014.14
2017-08-02T10:16:07.576Z,1014.13
2017-08-02T10:17:16.538Z,1014.15
2017-08-02T10:18:25.504Z,1014.19
2017-08-02T10:19:34.468Z,1014.12
2017-08-02T10:20:43.443Z,1014.1
2017-08-02T10:21:52.741Z,1014.08
2017-08-02T10:23:01.702Z,1014.09
2017-08-02T10:24:10.664Z,1014.04
2017-08-02T10:25:19.638Z,1014.07
2017-08-02T10:26:28.606Z,1014.04
2017-08-02T10:27:37.582Z,1014.07
2017-08-02T10:28:46.560Z,1014.05
2017-08-02T10:29:55.849Z,1014.07
2017-08-02T10:31:04.825Z,1014.11
2017-08-02T10:32:13.782Z,1014.08
2017-08-02T10:33:22.747Z,1014.08
2017-08-02T10:34:31.704Z,1014.06
2017-08-02T10:35:40.672Z,1014.06
2017-08-02T10:36:49.637Z,1014.05
2017-08-02T10:37:58.596Z,1014
2017-08-02T10:39:07.556Z,1014.02
2017-08-02T10:40:16.523Z,1013.98
2017-08-02T10:41:25.804Z,1014
2017-08-02T10:42:34.765Z,1013.94
2017-08-02T10:43:43.726Z,1013.95
2017-08-02T10:44:52.684Z,1014.02
2017-08-02T10:46:01.788Z,1014.04
2017-08-02T10:47:11.888Z,1014.04
2017-08-02T10:48:21.241Z,1014.02
2017-08-02T10:49:30.540Z,1014.02
2017-08-02T10:50:39.500Z,1014.05
2017-08-02T10:51:48.461Z,1014.01
2017-08-02T10:52:57.424Z,1014.02
2017-08-02T10:54:06.385Z,1014.03
2017-08-02T10:55:15.344Z,1014.06
2017-08-02T10:56:24.643Z,1014.1
2017-08-02T10:57:33.619Z,1014.11
2017-08-02T10:58:42.582Z,1014.07
2017-08-02T10:59:51.548Z,1014.05
2017-08-02T11:01:00.505Z,1014.02
2017-08-02T11:02:09.467Z,1014.03
2017-08-02T11:03:18.754Z,1013.97
2017-08-02T11:04:27.792Z,1013.94
2017-08-02T11:05:36.755Z,1014
2017-08-02T11:06:45.723Z,1013.93
2017-08-02T11:07:54.747Z,1013.87
2017-08-02T11:09:03.724Z,1013.84
2017-08-02T11:10:12.685Z,1013.85
2017-08-02T11:11:21.695Z,1013.88
2017-08-02T11:12:30.661Z,1013.91
2017-08-02T11:13:39.625Z,1013.92
2017-08-02T11:14:48.915Z,1013.93
2017-08-02T11:15:57.887Z,1013.95
2017-08-02T11:17:06.861Z,1014.03
2017-08-02T11:18:16.227Z,1014.01
2017-08-02T11:19:25.185Z,1014.03
2017-08-02T11:20:34.163Z,1014.02
2017-08-02T11:21:43.452Z,1014.05
2017-08-02T11:22:52.418Z,1014.01
2017-08-02T11:24:01.713Z,1014.02
2017-08-02T11:25:11.004Z,1014
2017-08-02T11:26:20.287Z,1013.94
2017-08-02T11:27:29.243Z,1013.98
2017-08-02T11:28:38.202Z,1014
2017-08-02T11:29:47.163Z,1014.04
2017-08-02T11:30:56.128Z,1014.03
2017-08-02T11:32:05.101Z,1014.03
2017-08-02T11:33:14.060Z,1014.01
2017-08-02T11:34:23.016Z,1014.08
2017-08-02T11:35:31.975Z,1014.04
2017-08-02T11:36:40.943Z,1014.12
2017-08-02T11:37:49.907Z,1014.06
2017-08-02T11:38:58.869Z,1013.95
2017-08-02T11:40:07.835Z,1014.03
2017-08-02T11:41:16.802Z,1013.99
2017-08-02T11:42:25.801Z,1013.97
2017-08-02T11:43:34.759Z,1013.91
2017-08-02T11:44:43.731Z,1013.87
2017-08-02T11:45:52.713Z,1013.85
2017-08-02T11:47:01.675Z,1013.86
2017-08-02T11:48:10.988Z,1013.81
2017-08-02T11:49:19.948Z,1013.8
2017-08-02T11:50:28.908Z,1013.83
2017-08-02T11:51:37.885Z,1013.86
2017-08-02T11:52:46.849Z,1013.9
2017-08-02T11:53:56.129Z,1013.88
2017-08-02T11:55:05.139Z,1013.88
2017-08-02T11:56:14.105Z,1013.89
2017-08-02T11:57:23.074Z,1013.86
2017-08-02T11:58:32.028Z,1013.86
2017-08-02T11:59:40.988Z,1013.79
2017-08-02T12:00:49.961Z,1013.8
2017-08-02T12:01:58.931Z,1013.83
2017-08-02T12:03:07.897Z,1013.86
2017-08-02T12:04:16.861Z,1013.85
2017-08-02T12:05:25.852Z,1013.81
2017-08-02T12:06:34.816Z,1013.83
2017-08-02T12:07:44.105Z,1013.88
2017-08-02T12:08:53.069Z,1013.98
2017-08-02T12:10:02.367Z,1013.93
2017-08-02T12:11:11.336Z,1013.87
2017-08-02T12:12:20.304Z,1013.78
2017-08-02T12:13:29.272Z,1013.78
2017-08-02T12:14:38.250Z,1013.8
2017-08-02T12:15:47.218Z,1013.77
2017-08-02T12:16:56.182Z,1013.79
2017-08-02T12:18:05.157Z,1013.77
2017-08-02T12:19:14.260Z,1013.76
2017-08-02T12:20:23.385Z,1013.74
2017-08-02T12:21:32.739Z,1013.75
2017-08-02T12:22:42.197Z,1013.76
2017-08-02T12:23:51.253Z,1013.7
2017-08-02T12:25:00.320Z,1013.69
2017-08-02T12:26:09.326Z,1013.63
2017-08-02T12:27:18.296Z,1013.7
2017-08-02T12:28:27.308Z,1013.71
2017-08-02T12:29:36.678Z,1013.71
2017-08-02T12:30:45.930Z,1013.77
2017-08-02T12:31:54.985Z,1013.87
2017-08-02T12:33:04.432Z,1013.87
2017-08-02T12:34:13.397Z,1013.89
2017-08-02T12:35:22.464Z,1013.9
2017-08-02T12:36:31.765Z,1013.89
2017-08-02T12:37:40.735Z,1013.85
2017-08-02T12:38:50.030Z,1013.82
2017-08-02T12:39:59.519Z,1013.79
2017-08-02T12:41:08.492Z,1013.78
2017-08-02T12:42:17.458Z,1013.79
2017-08-02T12:43:26.428Z,1013.79
2017-08-02T12:44:35.849Z,1013.8
2017-08-02T12:45:44.833Z,1013.86
2017-08-02T12:46:53.819Z,1013.86
2017-08-02T12:48:02.820Z,1013.89
2017-08-02T12:49:11.807Z,1013.91
2017-08-02T12:50:20.795Z,1013.9
2017-08-02T12:51:29.779Z,1013.89
2017-08-02T12:52:38.766Z,1013.87
2017-08-02T12:53:47.756Z,1013.87
2017-08-02T12:54:56.743Z,1013.76
2017-08-02T12:56:05.728Z,1013.81
2017-08-02T12:57:14.716Z,1013.81
2017-08-02T12:58:23.710Z,1013.74
2017-08-02T12:59:32.693Z,1013.72
2017-08-02T13:00:41.671Z,1013.67
2017-08-02T13:01:50.660Z,1013.68
2017-08-02T13:02:59.654Z,1013.72
2017-08-02T13:04:08.640Z,1013.75
2017-08-02T13:05:17.624Z,1013.74
2017-08-02T13:06:26.608Z,1013.72
2017-08-02T13:07:35.594Z,1013.73
2017-08-02T13:08:44.666Z,1013.72
2017-08-02T13:09:53.651Z,1013.72
2017-08-02T13:11:02.644Z,1013.7
2017-08-02T13:12:11.632Z,1013.6
2017-08-02T13:13:20.623Z,1013.59
2017-08-02T13:14:29.616Z,1013.62
2017-08-02T13:15:38.609Z,1013.61
2017-08-02T13:16:47.600Z,1013.57
2017-08-02T13:17:56.593Z,1013.6
2017-08-02T13:19:05.585Z,1013.62
2017-08-02T13:20:14.663Z,1013.59
2017-08-02T13:21:23.656Z,1013.61
2017-08-02T13:22:32.658Z,1013.61
2017-08-02T13:23:41.973Z,1013.58
2017-08-02T13:24:50.947Z,1013.58
2017-08-02T13:25:59.898Z,1013.56
2017-08-02T13:27:08.865Z,1013.6
2017-08-02T13:28:17.832Z,1013.58
2017-08-02T13:29:26.794Z,1013.54
2017-08-02T13:30:35.760Z,1013.56
2017-08-02T13:31:44.727Z,1013.53
2017-08-02T13:32:54.016Z,1013.54
2017-08-02T13:34:02.983Z,1013.52
2017-08-02T13:35:11.958Z,1013.52
2017-08-02T13:36:20.925Z,1013.55
2017-08-02T13:37:29.882Z,1013.52
2017-08-02T13:38:38.845Z,1013.53
2017-08-02T13:39:47.809Z,1013.5
2017-08-02T13:40:56.783Z,1013.51
2017-08-02T13:42:05.747Z,1013.48
2017-08-02T13:43:15.046Z,1013.49
2017-08-02T13:44:24.330Z,1013.49
2017-08-02T13:45:33.302Z,1013.49
2017-08-02T13:46:42.265Z,1013.46
2017-08-02T13:47:51.225Z,1013.5
2017-08-02T13:49:00.194Z,1013.49
2017-08-02T13:50:09.172Z,1013.5
2017-08-02T13:51:18.151Z,1013.5
2017-08-02T13:52:27.129Z,1013.55
2017-08-02T13:53:36.421Z,1013.54
2017-08-02T13:54:45.701Z,1013.52
2017-08-02T13:55:54.663Z,1013.47
2017-08-02T13:57:03.649Z,1013.49
2017-08-02T13:58:12.617Z,1013.43